Latest Weather Observations for Mount Crawford

IDS60901

Issued at 10:41 am CDT Saturday 6 February 2016 (issued every 10 minutes, with the page automatically refreshed every 10 minutes)

About weather observations | Map of Adelaide area stations | Latest observations for Adelaide area | Other Formats
Station Details ID: 023878 Name: MT CRAWFORD AWS Lat: -34.73 Lon: 138.93 Height: 525.0 m
Data from the previous 72 hours. | See also: Recent months at Mount Crawford
Date/Time
CDT
Tmp

°C
App
Tmp
°C
Dew
Point
°C
Rel
Hum
%
Delta-T

°C
Wind Press
QNH
hPa
Press
MSL
hPa
Rain
since
9 am
mm
Dir
 
Spd
km/h
Gust
km/h
Spd
kts
Gust
kts
06/10:30am 27.2 23.4 6.0 26 11.3 NE 15 22 8 12 1017.3 1015.0 0.0
06/10:00am 25.7 22.3 7.8 32 9.8 NE 15 20 8 11 1017.3 1015.0 0.0
06/09:30am 24.3 21.3 10.6 42 7.8 ENE 17 24 9 13 1017.2 1014.9 0.0
06/09:00am 23.0 19.6 9.0 41 7.7 E 17 20 9 11 1016.8 1014.6 0.0
06/08:30am 21.8 18.9 10.9 50 6.1 E 17 20 9 11 1016.7 1014.5 0.0
06/08:00am 20.2 17.0 11.1 56 5.1 E 19 24 10 13 1016.4 1014.2 0.0
06/07:30am 19.3 15.9 11.3 60 4.5 E 20 24 11 13 1015.9 1013.6 0.0
06/07:00am 19.2 15.7 11.0 59 4.6 E 20 24 11 13 1015.8 1013.5 0.0
06/06:30am 17.8 14.6 11.8 68 3.4 E 20 24 11 13 1015.3 1013.0 0.0
06/06:00am 16.8 13.5 12.9 78 2.2 ESE 22 24 12 13 1014.9 1012.7 0.0
06/05:30am 16.7 13.5 13.0 79 2.1 ESE 22 26 12 14 1014.9 1012.7 0.0
06/05:00am 17.7 14.0 12.6 72 2.9 SE 24 28 13 15 1014.9 1012.7 0.0
06/04:30am 18.0 14.0 12.9 72 2.9 SE 26 32 14 17 1014.9 1012.7 0.0
06/04:00am 18.1 13.7 13.0 72 2.9 SE 28 37 15 20 1015.1 1012.8 0.0
06/03:30am 17.9 13.5 13.0 73 2.8 SE 28 39 15 21 1015.3 1013.0 0.0
06/03:00am 17.3 13.0 12.2 72 2.9 SE 26 35 14 19 1015.4 1013.1 0.0
06/02:30am 17.2 12.4 11.5 69 3.2 SE 28 41 15 22 1015.7 1013.4 0.0
06/02:00am 16.8 10.9 11.1 69 3.1 SE 33 46 18 25 1015.8 1013.5 0.0
06/01:30am 15.8 10.4 11.0 73 2.6 SE 30 46 16 25 1016.0 1013.7 0.0
06/01:00am 15.5 9.5 10.7 73 2.6 SSE 33 44 18 24 1016.2 1013.9 0.0
06/12:30am 15.1 9.0 10.5 74 2.5 SSE 33 41 18 22 1016.3 1014.1 0.0
06/12:00am 14.5 8.6 10.5 77 2.2 SSE 32 43 17 23 1016.3 1014.1 0.0
 
Date/Time
CDT
Tmp

°C
App
Tmp
°C
Dew
Point
°C
Rel
Hum
%
Delta-T

°C
Wind Press
QNH
hPa
Press
MSL
hPa
Rain
since
9 am
mm
Dir
 
Spd
km/h
Gust
km/h
Spd
kts
Gust
kts
05/11:30pm 14.2 8.4 11.4 83 1.5 SSE 33 41 18 22 1016.5 1014.3 0.0
05/11:00pm 14.3 8.7 11.5 83 1.5 SSE 32 43 17 23 1016.7 1014.5 0.0
05/10:30pm 14.8 9.1 11.2 79 2.0 SSE 32 39 17 21 1016.7 1014.5 0.0
05/10:00pm 15.1 9.7 10.9 76 2.3 SSE 30 43 16 23 1016.7 1014.5 0.0
05/09:30pm 15.8 10.2 11.4 75 2.4 SSE 32 41 17 22 1016.5 1014.3 0.0
05/09:00pm 16.6 12.0 12.2 75 2.5 SSE 28 37 15 20 1016.3 1014.1 0.0
05/08:30pm 17.6 14.2 12.5 72 2.9 SSE 22 32 12 17 1016.4 1014.2 0.0
05/08:00pm 18.9 15.9 12.4 66 3.7 SE 20 30 11 16 1016.2 1013.9 0.0
05/07:30pm 20.7 18.3 12.7 60 4.6 SE 17 24 9 13 1015.9 1013.6 0.0
05/07:00pm 21.5 18.6 12.4 56 5.3 SE 19 26 10 14 1015.7 1013.4 0.0
05/06:30pm 23.8 20.5 11.5 46 7.1 SE 20 28 11 15 1015.7 1013.4 0.0
05/06:00pm 24.5 21.1 11.1 43 7.7 ESE 20 32 11 17 1015.6 1013.3 0.0
05/05:30pm 25.2 22.0 9.9 38 8.6 E 17 28 9 15 1015.6 1013.3 0.0
05/05:00pm 25.3 22.1 10.0 38 8.7 E 17 30 9 16 1015.7 1013.4 0.0
05/04:30pm 25.1 21.8 9.4 37 8.8 E 17 28 9 15 1015.9 1013.6 0.0
05/04:00pm 25.2 21.6 9.9 38 8.6 E 19 33 10 18 1016.1 1013.8 0.0
05/03:30pm 25.0 21.1 9.3 37 8.8 E 20 32 11 17 1016.5 1014.3 0.0
05/03:00pm 23.9 19.9 9.1 39 8.2 ENE 20 35 11 19 1016.8 1014.6 0.0
05/02:30pm 23.5 19.1 9.1 40 7.9 E 22 32 12 17 1017.3 1015.0 0.0
05/02:00pm 22.8 19.4 10.6 46 6.9 SE 19 33 10 18 1017.6 1015.3 0.0
05/01:30pm 22.8 19.5 10.9 47 6.7 E 19 32 10 17 1017.9 1015.6 0.0
05/01:00pm 21.7 18.4 11.7 53 5.7 SE 20 32 11 17 1018.0 1015.8 0.0
05/12:30pm 20.7 17.5 11.1 54 5.4 SE 19 32 10 17 1018.2 1016.0 0.0
05/12:00pm 19.9 16.8 10.3 54 5.3 ESE 17 24 9 13 1018.4 1016.2 0.0
05/11:30am 18.8 15.1 10.1 57 4.8 SE 20 28 11 15 1018.6 1016.4 0.0
05/11:00am 17.0 12.3 10.6 66 3.5 ESE 26 33 14 18 1018.5 1016.3 0.0
05/10:30am 16.0 11.6 10.5 70 3.0 ESE 24 35 13 19 1018.6 1016.4 0.0
05/10:00am 15.3 11.4 10.7 74 2.5 ESE 22 41 12 22 1018.8 1016.6 0.0
05/09:30am 13.5 8.6 10.1 80 1.8 ESE 26 39 14 21 1018.9 1016.7 0.0
05/09:00am 12.7 9.1 10.6 87 1.1 ESE 20 35 11 19 1018.9 1016.7 0.0
05/08:30am 10.7 5.2 10.4 98 0.2 SE 30 39 16 21 1018.6 1016.4 0.0
05/08:00am 9.9 4.2 9.8 99 0.1 SE 30 43 16 23 1018.4 1016.2 0.0
05/07:30am 9.8 4.8 9.7 99 0.1 SE 26 43 14 23 1018.2 1016.0 0.0
05/07:00am 9.7 4.3 9.6 99 0.1 SE 28 37 15 20 1018.2 1016.0 0.0
05/06:30am 9.6 3.8 9.5 99 0.1 SE 30 41 16 22 1017.7 1015.4 0.0
05/06:00am 9.8 4.8 9.7 99 0.1 SE 26 39 14 21 1017.6 1015.3 0.0
05/05:30am 9.7 4.3 9.6 99 0.1 SE 28 41 15 22 1017.2 1014.9 0.0
05/05:00am 9.9 5.0 9.8 99 0.1 SE 26 37 14 20 1017.1 1014.8 0.0
05/04:30am 10.3 5.4 10.0 98 0.2 ESE 26 39 14 21 1016.7 1014.5 0.0
05/04:00am 10.8 4.8 10.2 96 0.3 SE 32 46 17 25 1016.5 1014.3 0.0
05/03:30am 11.0 5.2 10.7 98 0.2 SE 32 46 17 25 1016.3 1014.1 0.0
05/03:00am 11.3 5.9 11.0 98 0.2 SE 30 41 16 22 1016.7 1014.5 0.0
05/02:30am 11.6 4.9 11.0 96 0.3 SE 37 52 20 28 1016.6 1014.4 0.0
05/02:00am 12.0 4.9 10.9 93 0.6 SE 39 59 21 32 1016.7 1014.5 0.0
05/01:36am 12.3 5.2 11.0 92 0.7 ESE 39 57 21 31 1016.9 1014.7 0.0
05/01:30am 12.3 4.8 11.0 92 0.7 ESE 41 57 22 31 1016.9 1014.7 0.0
05/01:00am 12.5 5.9 11.2 92 0.7 SE 37 52 20 28 1017.4 1015.1 0.0
05/12:30am 12.3 7.1 11.5 95 0.4 SE 30 43 16 23 1017.9 1015.6 0.0
05/12:00am 12.4 7.3 11.8 96 0.3 SE 30 41 16 22 1018.0 1015.8 0.0
 
Date/Time
CDT
Tmp

°C
App
Tmp
°C
Dew
Point
°C
Rel
Hum
%
Delta-T

°C
Wind Press
QNH
hPa
Press
MSL
hPa
Rain
since
9 am
mm
Dir
 
Spd
km/h
Gust
km/h
Spd
kts
Gust
kts
04/11:30pm 12.6 7.1 12.0 96 0.3 SE 32 43 17 23 1018.1 1015.9 0.0
04/11:00pm 12.5 7.0 12.0 97 0.3 SE 32 44 17 24 1018.4 1016.2 0.0
04/10:30pm 12.7 7.5 11.6 93 0.6 SE 30 43 16 23 1018.6 1016.4 0.0
04/10:15pm 12.8 7.9 11.2 90 0.9 SE 28 46 15 25 1018.6 1016.4 0.0
04/10:00pm 12.9 7.9 11.0 88 1.0 SE 28 43 15 23 1018.5 1016.3 0.0
04/09:30pm 13.2 8.1 10.7 85 1.3 SE 28 39 15 21 1018.3 1016.1 0.0
04/09:00pm 13.5 8.9 10.9 84 1.4 SSE 26 35 14 19 1018.3 1016.1 0.0
04/08:34pm 13.9 8.9 10.9 82 1.6 SSE 28 46 15 25 1018.2 1016.0 0.0
04/08:30pm 13.9 8.9 10.9 82 1.6 SSE 28 37 15 20 1018.1 1015.9 0.0
04/08:00pm 14.9 10.3 10.9 77 2.2 SSE 26 35 14 19 1017.9 1015.6 0.0
04/07:30pm 15.8 11.5 10.8 72 2.7 SSE 24 35 13 19 1017.8 1015.5 0.0
04/07:02pm 16.6 11.5 10.5 67 3.3 SSE 28 46 15 25 1017.6 1015.3 0.0
04/07:00pm 16.8 12.2 11.1 69 3.1 SSE 26 37 14 20 1017.7 1015.4 0.0
04/06:30pm 17.4 11.3 10.5 64 3.8 SSE 33 48 18 26 1017.6 1015.3 0.0
04/06:00pm 18.2 12.3 10.6 61 4.2 SSE 32 48 17 26 1017.5 1015.2 0.0
04/05:41pm 18.1 11.0 9.5 57 4.6 SSE 37 56 20 30 1017.3 1015.0 0.0
04/05:30pm 18.0 11.3 9.6 58 4.5 SSE 35 52 19 28 1017.4 1015.1 0.0
04/05:00pm 18.4 11.8 10.0 58 4.6 SSE 35 50 19 27 1017.6 1015.3 0.0
04/04:30pm 18.3 11.5 9.1 55 4.9 SE 35 54 19 29 1017.9 1015.6 0.0
04/04:25pm 18.3 11.8 8.8 54 5.1 SE 33 54 18 29 1017.8 1015.5 0.0
04/04:00pm 19.3 13.4 9.2 52 5.5 SSE 30 43 16 23 1018.2 1016.0 0.0
04/03:47pm 19.1 13.2 9.0 52 5.4 SSE 30 50 16 27 1018.2 1016.0 0.0
04/03:30pm 19.1 13.9 10.1 56 4.9 SSE 28 44 15 24 1018.4 1016.2 0.0
04/03:01pm 19.2 13.7 9.1 52 5.4 SE 28 46 15 25 1018.6 1016.4 0.0
04/03:00pm 19.6 14.1 9.2 51 5.6 SE 28 44 15 24 1018.6 1016.4 0.0
04/02:30pm 20.1 15.1 9.4 50 5.8 SSE 26 39 14 21 1019.0 1016.8 0.0
04/02:00pm 19.2 14.1 9.1 52 5.4 SSE 26 37 14 20 1019.2 1016.9 0.0
04/01:30pm 17.9 12.3 10.0 60 4.3 SSE 30 41 16 22 1019.4 1017.1 0.0
04/01:00pm 18.3 12.4 9.1 55 4.9 SSE 30 43 16 23 1019.7 1017.5 0.0
04/12:30pm 17.6 12.3 9.8 60 4.2 SSE 28 41 15 22 1019.9 1017.7 0.0
04/12:00pm 16.8 10.6 9.2 61 4.0 SSE 32 43 17 23 1020.1 1017.9 0.0
04/11:30am 16.4 10.9 9.3 63 3.8 SSE 28 41 15 22 1020.4 1018.2 0.0
04/11:00am 15.5 10.1 9.6 68 3.1 SSE 28 39 15 21 1020.5 1018.3 0.0
04/10:30am 15.2 9.7 9.1 67 3.2 SE 28 43 15 23 1020.4 1018.2 0.0
04/10:09am 13.9 8.4 9.1 73 2.5 SE 28 46 15 25 1020.4 1018.2 0.0
04/10:00am 13.7 7.3 8.5 71 2.7 SE 32 46 17 25 1020.4 1018.2 0.0
04/09:30am 12.9 7.3 8.8 76 2.1 SE 28 46 15 25 1020.4 1018.2 0.0
04/09:29am 12.9 7.3 8.8 76 2.1 SE 28 46 15 25 1020.4 1018.2 0.0
04/09:00am 12.5 6.9 8.8 78 1.9 SE 28 43 15 23 1020.3 1018.1 0.0
04/08:30am 12.1 7.4 9.1 82 1.5 SE 24 39 13 21 1020.0 1017.8 0.0
04/08:00am 11.9 6.8 9.1 83 1.4 SE 26 46 14 25 1019.5 1017.2 0.0
04/07:41am 11.6 6.1 9.0 84 1.3 SE 28 46 15 25 1019.3 1017.0 0.0
04/07:30am 11.5 6.4 9.1 85 1.2 SE 26 39 14 21 1019.2 1016.9 0.0
04/07:00am 11.0 5.4 8.8 86 1.1 SE 28 48 15 26 1018.7 1016.5 0.0
04/06:56am 11.0 5.1 8.9 87 1.1 SE 30 48 16 26 1018.8 1016.6 0.0
04/06:30am 10.8 6.0 8.9 88 1.0 SE 24 39 13 21 1018.4 1016.2 0.0
04/06:17am 10.8 5.2 8.7 87 1.1 SE 28 52 15 28 1018.3 1016.1 0.0
04/06:00am 10.7 5.4 8.6 87 1.1 SE 26 41 14 22 1018.3 1016.1 0.0
04/05:33am 10.8 5.2 8.7 87 1.1 SE 28 48 15 26 1018.0 1015.8 0.0
04/05:30am 10.9 5.7 8.7 86 1.1 SE 26 48 14 26 1018.0 1015.8 0.0
04/05:11am 11.1 5.6 9.0 87 1.1 SE 28 46 15 25 1017.8 1015.5 0.0
04/05:00am 11.2 6.8 9.1 87 1.1 SE 22 39 12 21 1017.8 1015.5 0.0
04/04:39am 11.3 5.8 9.2 87 1.1 SE 28 46 15 25 1017.5 1015.2 0.0
04/04:30am 11.3 6.3 9.4 88 1.0 SE 26 43 14 23 1017.5 1015.2 0.0
04/04:00am 11.3 6.8 9.9 91 0.7 SE 24 35 13 19 1017.4 1015.1 0.0
04/03:30am 11.5 6.6 9.9 90 0.8 SE 26 43 14 23 1017.4 1015.1 0.0
04/03:00am 11.6 6.8 10.2 91 0.7 SE 26 44 14 24 1017.2 1014.9 0.0
04/02:30am 11.6 6.0 10.3 92 0.7 SE 30 46 16 25 1017.2 1014.9 0.0
04/02:07am 11.8 6.6 10.4 91 0.7 SE 28 48 15 26 1017.3 1015.0 0.0
04/02:00am 11.7 6.5 10.1 90 0.8 SE 28 43 15 23 1017.5 1015.2 0.0
04/01:30am 11.5 5.4 9.9 90 0.8 SE 32 50 17 27 1017.4 1015.1 0.0
04/01:04am 11.6 4.6 10.0 90 0.8 SE 37 56 20 30 1017.2 1014.9 0.0
04/01:00am 11.5 4.5 9.9 90 0.8 SE 37 54 20 29 1017.1 1014.8 0.0
04/12:30am 11.6 4.2 10.0 90 0.8 SE 39 57 21 31 1016.9 1014.7 0.0
04/12:09am 11.6 5.0 10.0 90 0.8 SE 35 56 19 30 1016.9 1014.7 0.0
04/12:00am 11.7 4.7 9.9 89 0.9 SE 37 54 20 29 1016.9 1014.7 0.0
 
Date/Time
CDT
Tmp

°C
App
Tmp
°C
Dew
Point
°C
Rel
Hum
%
Delta-T

°C
Wind Press
QNH
hPa
Press
MSL
hPa
Rain
since
9 am
mm
Dir
 
Spd
km/h
Gust
km/h
Spd
kts
Gust
kts
03/11:30pm 11.8 5.6 9.9 88 1.0 SE 33 52 18 28 1017.2 1014.9 0.0
03/11:13pm 12.0 5.8 10.1 88 1.0 SE 33 59 18 32 1017.3 1015.0 0.0
03/11:00pm 12.0 5.8 10.1 88 1.0 SE 33 50 18 27 1017.4 1015.1 0.0
03/10:30pm 12.1 6.1 10.2 88 1.0 SSE 32 50 17 27 1017.5 1015.2 0.0
03/10:04pm 12.2 6.2 10.1 87 1.1 SSE 32 52 17 28 1017.6 1015.3 0.0
03/10:00pm 12.3 7.0 10.0 86 1.2 SSE 28 44 15 24 1017.7 1015.4 0.0
03/09:30pm 12.4 7.1 10.0 85 1.3 SSE 28 41 15 22 1017.8 1015.5 0.0
03/09:20pm 12.5 7.2 9.9 84 1.4 SSE 28 48 15 26 1017.6 1015.3 0.0
03/09:00pm 12.6 7.2 9.6 82 1.6 S 28 43 15 23 1017.5 1015.2 0.0
03/08:48pm 12.8 7.0 9.6 81 1.7 SSE 30 48 16 26 1017.3 1015.0 0.0
03/08:30pm 13.1 7.4 9.7 80 1.8 SSE 30 43 16 23 1017.1 1014.8 0.0
03/08:00pm 13.7 7.5 9.4 75 2.3 SSE 32 50 17 27 1016.7 1014.5 0.0
03/07:47pm 14.2 8.6 8.6 69 2.9 S 28 46 15 25 1016.5 1014.3 0.0
03/07:30pm 14.8 8.6 9.4 70 2.9 SSE 32 44 17 24 1016.4 1014.2 0.0
03/07:00pm 15.2 8.9 9.1 67 3.2 SSE 32 44 17 24 1016.1 1013.8 0.0
03/06:30pm 16.8 11.1 9.7 63 3.8 S 30 44 16 24 1015.8 1013.5 0.0
03/06:00pm 17.1 11.8 9.8 62 3.9 SSE 28 43 15 23 1015.6 1013.3 0.0
03/05:30pm 17.5 11.4 10.6 64 3.8 SSW 33 48 18 26 1015.3 1013.0 0.0
03/05:26pm 16.8 10.5 9.7 63 3.8 SSW 33 48 18 26 1015.2 1012.9 0.0
03/05:00pm 16.9 10.8 9.6 62 3.9 SSE 32 46 17 25 1015.3 1013.0 0.0
03/04:30pm 17.3 12.7 9.5 60 4.2 S 24 43 13 23 1015.3 1013.0 0.0
03/04:15pm 17.8 12.5 9.7 59 4.4 S 28 48 15 26 1015.1 1012.8 0.0
03/04:00pm 16.5 11.5 9.7 64 3.7 SSE 26 44 14 24 1015.2 1012.9 0.0
03/03:30pm 17.2 13.8 11.2 68 3.3 SSE 20 32 11 17 1015.4 1013.1 0.0
03/03:00pm 16.1 11.4 10.8 71 2.9 S 26 37 14 20 1015.3 1013.0 0.0
03/02:30pm 16.5 11.4 10.6 68 3.2 S 28 43 15 23 1014.7 1012.5 0.0
03/02:00pm 16.5 11.3 10.1 66 3.5 SSW 28 37 15 20 1014.6 1012.4 0.0
03/01:30pm 16.6 13.1 10.9 69 3.1 S 20 35 11 19 1014.7 1012.5 0.0
03/01:00pm 16.8 12.5 10.9 68 3.2 SSW 24 37 13 20 1014.7 1012.5 0.0
03/12:30pm 15.6 10.6 10.8 73 2.6 SSW 28 39 15 21 1014.7 1012.5 0.0
03/12:00pm 16.7 12.6 11.4 71 2.9 S 24 37 13 20 1014.5 1012.2 0.0
03/11:30am 15.8 11.3 11.4 75 2.4 SSW 26 41 14 22 1014.4 1012.1 0.0
03/11:00am 15.8 11.2 12.2 79 2.0 SSW 28 37 15 20 1014.2 1011.9 0.0
03/10:56am 15.5 10.8 11.9 79 2.0 SSW 28 46 15 25 1014.1 1011.8 0.0

Latest Capital City Observations: Canberra | Sydney | Melbourne | Brisbane | Adelaide | Perth | Hobart | Darwin

Other Formats:

Comma delimited format used in spreadsheet applications
http://www.bom.gov.au/fwo/IDS60901/IDS60901.94678.axf

JavaScript Object Notation format (JSON) in row-major order
http://www.bom.gov.au/fwo/IDS60901/IDS60901.94678.json